Time;durP1;ratioP1;P1;durP2;ratioP2;P2;SDS_P1;SDS_P2;PMS_P1;PMS_P2;Temp;Humidity;BMP_temperature;BMP_pressure;BME280_temperature;BME280_humidity;BME280_pressure;Samples;Min_cycle;Max_cycle;Signal;HPM_P1;HPM_P2
2023/02/17 00:02:11;;;;;;;28.70;16.73;;;9.90;99.90;;;;;;5100775;28;20468;-82
2023/02/17 00:04:38;;;;;;;23.07;16.20;;;9.90;99.90;;;;;;5101610;28;20989;-80
2023/02/17 00:07:08;;;;;;;24.80;15.83;;;9.90;99.90;;;;;;5104492;28;20457;-80
2023/02/17 00:09:36;;;;;;;27.13;16.87;;;9.90;99.90;;;;;;5100462;28;20460;-79
2023/02/17 00:12:03;;;;;;;22.00;16.13;;;9.90;99.90;;;;;;5100613;28;20524;-79
2023/02/17 00:14:31;;;;;;;19.47;15.90;;;10.00;99.90;;;;;;5103701;28;20451;-80
2023/02/17 00:16:58;;;;;;;22.50;16.67;;;10.00;99.90;;;;;;5092689;28;20461;-80
2023/02/17 00:19:25;;;;;;;23.03;15.77;;;10.00;99.90;;;;;;5081709;28;20513;-81
2023/02/17 00:21:54;;;;;;;23.40;15.03;;;10.00;99.90;;;;;;5089991;28;20528;-80
2023/02/17 00:24:21;;;;;;;19.43;13.97;;;10.00;99.90;;;;;;5101580;28;20487;-81
2023/02/17 00:26:48;;;;;;;24.90;14.63;;;10.00;99.90;;;;;;5101179;28;20473;-81
2023/02/17 00:29:15;;;;;;;20.77;13.70;;;10.10;99.90;;;;;;5102677;28;20527;-81
2023/02/17 00:31:44;;;;;;;20.83;14.50;;;10.10;99.90;;;;;;5103630;28;21036;-79
2023/02/17 00:34:12;;;;;;;22.63;14.67;;;10.00;99.90;;;;;;5095509;28;20430;-80
2023/02/17 00:36:39;;;;;;;21.20;14.30;;;10.10;99.90;;;;;;5093302;28;20473;-80
2023/02/17 00:39:07;;;;;;;19.90;13.90;;;10.10;99.90;;;;;;5098496;28;20461;-81
2023/02/17 00:41:34;;;;;;;23.37;14.00;;;10.10;99.90;;;;;;5104310;28;20480;-82
2023/02/17 00:44:01;;;;;;;16.97;12.57;;;10.10;99.90;;;;;;5101357;28;20500;-81
2023/02/17 00:46:28;;;;;;;20.70;13.13;;;10.20;99.90;;;;;;5106753;28;20469;-81
2023/02/17 00:48:57;;;;;;;16.27;13.13;;;10.20;99.90;;;;;;5104386;28;20492;-82
2023/02/17 00:51:24;;;;;;;21.33;14.70;;;10.20;99.90;;;;;;5105526;28;20536;-81
2023/02/17 00:53:52;;;;;;;20.97;13.07;;;10.20;99.90;;;;;;5105456;28;20488;-82
2023/02/17 00:56:19;;;;;;;13.60;11.97;;;10.20;99.90;;;;;;5098962;28;20484;-80
2023/02/17 00:58:46;;;;;;;17.97;13.07;;;10.30;99.90;;;;;;5094630;28;20475;-80
2023/02/17 01:01:12;;;;;;;17.40;11.73;;;10.30;99.90;;;;;;5105027;28;20452;-80
2023/02/17 01:03:40;;;;;;;16.87;13.10;;;10.30;99.90;;;;;;5103809;28;20491;-81
2023/02/17 01:06:11;;;;;;;14.30;11.83;;;10.30;99.90;;;;;;5099966;28;20879;-81
2023/02/17 01:08:38;;;;;;;18.33;14.60;;;10.40;99.90;;;;;;5096361;28;20468;-80
2023/02/17 01:11:05;;;;;;;16.60;11.50;;;10.30;99.90;;;;;;5101371;28;20457;-81
2023/02/17 01:13:32;;;;;;;17.70;11.20;;;10.30;99.90;;;;;;5107046;28;20456;-81
2023/02/17 01:15:58;;;;;;;17.60;12.30;;;10.30;99.90;;;;;;5116432;28;20605;-81
2023/02/17 01:18:25;;;;;;;15.87;12.73;;;10.30;99.90;;;;;;5101210;28;20459;-81
2023/02/17 01:20:53;;;;;;;17.60;12.90;;;10.30;99.90;;;;;;5102683;28;20533;-81
2023/02/17 01:23:21;;;;;;;16.60;12.20;;;10.30;99.90;;;;;;5101509;28;20543;-79
2023/02/17 01:25:49;;;;;;;17.23;13.87;;;10.30;99.90;;;;;;5102747;28;20485;-80
2023/02/17 01:28:19;;;;;;;17.60;12.97;;;10.30;99.90;;;;;;5099895;28;20500;-81
2023/02/17 01:30:46;;;;;;;20.73;12.47;;;10.30;99.90;;;;;;5103151;28;20457;-82
2023/02/17 01:33:13;;;;;;;16.50;13.27;;;10.30;99.90;;;;;;5102536;28;20536;-81
2023/02/17 01:35:40;;;;;;;20.87;12.50;;;10.30;99.90;;;;;;5100633;28;20565;-81
2023/02/17 01:38:06;;;;;;;17.03;12.73;;;10.30;99.90;;;;;;5101066;28;20462;-79
2023/02/17 01:40:35;;;;;;;16.53;12.20;;;10.30;99.90;;;;;;5095726;28;20546;-81
2023/02/17 01:43:02;;;;;;;17.03;13.20;;;10.20;99.90;;;;;;5087415;28;20459;-81
2023/02/17 01:45:40;;;;;;;16.67;13.77;;;10.20;99.90;;;;;;5111327;28;20497;-81
2023/02/17 01:48:11;;;;;;;22.40;15.07;;;10.20;99.90;;;;;;5105375;28;20986;-79
2023/02/17 01:50:43;;;;;;;17.73;13.67;;;10.20;99.90;;;;;;5103755;28;20444;-82
2023/02/17 01:53:13;;;;;;;21.00;14.23;;;10.10;99.90;;;;;;5104468;28;20740;-82
2023/02/17 01:55:42;;;;;;;23.77;15.17;;;10.10;99.90;;;;;;5103165;28;20513;-81
2023/02/17 01:58:13;;;;;;;19.93;14.33;;;10.10;99.90;;;;;;5102562;28;20467;-80
2023/02/17 02:00:40;;;;;;;20.33;14.67;;;10.10;99.90;;;;;;5095818;28;20968;-81
2023/02/17 02:03:10;;;;;;;22.10;16.20;;;10.10;99.90;;;;;;5095384;28;20469;-80
2023/02/17 02:05:39;;;;;;;19.83;14.57;;;10.10;99.90;;;;;;5102630;28;20870;-81
2023/02/17 02:08:06;;;;;;;19.07;13.70;;;10.20;99.90;;;;;;5101623;28;20487;-80
2023/02/17 02:10:33;;;;;;;15.97;13.57;;;10.20;99.90;;;;;;5102645;28;20477;-81
2023/02/17 02:13:01;;;;;;;18.27;13.00;;;10.10;99.90;;;;;;5102357;28;20460;-80
2023/02/17 02:15:34;;;;;;;20.83;14.40;;;10.20;99.90;;;;;;5095331;28;20480;-80
2023/02/17 02:18:12;;;;;;;18.70;14.03;;;10.20;99.90;;;;;;5093622;28;20457;-81
2023/02/17 02:21:16;;;;;;;20.23;15.33;;;10.10;99.90;;;;;;5110454;28;20447;-81
2023/02/17 02:23:56;;;;;;;17.87;14.03;;;10.10;99.90;;;;;;5079835;28;20449;-80
2023/02/17 02:26:50;;;;;;;21.40;17.00;;;10.10;99.90;;;;;;5121246;28;20557;-82
2023/02/17 02:30:02;;;;;;;21.70;14.57;;;10.10;99.90;;;;;;5105529;28;20463;-82
2023/02/17 02:32:47;;;;;;;17.23;13.30;;;10.10;99.90;;;;;;5098813;28;20509;-82
2023/02/17 02:35:18;;;;;;;20.47;14.63;;;10.10;99.90;;;;;;5094323;28;20504;-81
2023/02/17 02:37:51;;;;;;;16.87;13.57;;;10.10;99.90;;;;;;5103308;28;20478;-81
2023/02/17 02:40:21;;;;;;;21.47;15.67;;;10.10;99.90;;;;;;5102610;28;20541;-81
2023/02/17 02:42:49;;;;;;;18.53;14.00;;;10.10;99.90;;;;;;5096617;28;20840;-80
2023/02/17 02:45:18;;;;;;;16.27;13.00;;;10.20;99.90;;;;;;5086755;28;20921;-81
2023/02/17 02:47:49;;;;;;;20.60;13.93;;;10.30;99.90;;;;;;5094472;28;20461;-81
2023/02/17 02:50:18;;;;;;;17.80;13.97;;;10.30;99.90;;;;;;5098672;28;20510;-80
2023/02/17 02:53:07;;;;;;;15.90;12.10;;;10.20;99.90;;;;;;5102218;28;20472;-81
2023/02/17 02:55:47;;;;;;;16.50;14.23;;;10.20;99.90;;;;;;5103573;28;20989;-81
2023/02/17 02:58:20;;;;;;;16.77;13.00;;;10.20;99.90;;;;;;5103801;28;20573;-81
2023/02/17 03:00:54;;;;;;;18.20;14.47;;;10.20;99.90;;;;;;5099777;28;20521;-81
2023/02/17 03:03:30;;;;;;;20.20;14.10;;;10.20;99.90;;;;;;5099459;28;20437;-81
2023/02/17 03:06:06;;;;;;;17.23;12.87;;;10.20;99.90;;;;;;5096664;28;20968;-81
2023/02/17 03:08:38;;;;;;;17.63;13.40;;;10.20;99.90;;;;;;5096534;28;20472;-80
2023/02/17 03:11:05;;;;;;;14.83;11.67;;;10.20;99.90;;;;;;5088538;28;20983;-82
2023/02/17 03:13:36;;;;;;;13.40;11.30;;;10.20;99.90;;;;;;5097567;28;20448;-81
2023/02/17 03:16:03;;;;;;;16.27;13.07;;;10.20;99.90;;;;;;5097814;28;20469;-82
2023/02/17 03:18:33;;;;;;;15.27;11.20;;;10.30;99.90;;;;;;5096282;28;20500;-81
2023/02/17 03:21:04;;;;;;;19.63;13.57;;;10.30;99.90;;;;;;5097261;28;20957;-82
2023/02/17 03:23:31;;;;;;;14.80;11.17;;;10.30;99.90;;;;;;5097153;28;20967;-81
2023/02/17 03:25:58;;;;;;;13.97;11.23;;;10.30;99.90;;;;;;5089939;28;20492;-81
2023/02/17 03:28:25;;;;;;;12.77;10.03;;;10.30;99.90;;;;;;5096193;28;20491;-81
2023/02/17 03:30:52;;;;;;;15.30;11.30;;;10.40;99.90;;;;;;5096587;28;20864;-83
2023/02/17 03:33:18;;;;;;;11.73;9.93;;;10.50;99.90;;;;;;5096303;28;20455;-81
2023/02/17 03:35:47;;;;;;;12.50;10.60;;;10.50;99.90;;;;;;5095592;28;20486;-81
2023/02/17 03:38:14;;;;;;;12.00;9.47;;;10.60;99.90;;;;;;5095239;28;21007;-80
2023/02/17 03:40:41;;;;;;;10.73;9.60;;;10.60;99.90;;;;;;5095964;28;20449;-81
2023/02/17 03:43:08;;;;;;;11.10;9.80;;;10.60;99.90;;;;;;5096662;28;20548;-79
2023/02/17 03:45:36;;;;;;;12.90;9.87;;;10.70;99.90;;;;;;5096289;28;20499;-81
2023/02/17 03:48:03;;;;;;;11.57;9.53;;;10.70;99.90;;;;;;5093447;28;20473;-81
2023/02/17 03:50:30;;;;;;;10.10;8.33;;;10.70;99.90;;;;;;5093130;28;21024;-82
2023/02/17 03:52:58;;;;;;;12.23;9.70;;;10.70;99.90;;;;;;5096137;28;20451;-81
2023/02/17 03:55:25;;;;;;;11.57;9.40;;;10.70;99.90;;;;;;5096833;28;20460;-81
2023/02/17 03:57:52;;;;;;;12.00;9.20;;;10.80;99.90;;;;;;5099181;28;20461;-83
2023/02/17 04:00:20;;;;;;;10.93;9.80;;;10.80;99.90;;;;;;5095226;28;20465;-80
2023/02/17 04:02:47;;;;;;;11.00;9.43;;;10.80;99.90;;;;;;5097110;28;20475;-81
2023/02/17 04:05:14;;;;;;;11.20;8.90;;;10.90;99.90;;;;;;5095807;28;20484;-80
2023/02/17 04:07:41;;;;;;;10.17;9.10;;;10.90;99.90;;;;;;5097784;28;20991;-83
2023/02/17 04:10:10;;;;;;;10.70;8.53;;;10.90;99.90;;;;;;5094076;28;20441;-80
2023/02/17 04:12:37;;;;;;;9.90;8.77;;;10.90;99.90;;;;;;5094823;28;20456;-81
2023/02/17 04:15:04;;;;;;;12.47;9.20;;;11.00;99.90;;;;;;5094792;28;20485;-84
2023/02/17 04:17:31;;;;;;;9.57;8.17;;;11.00;99.90;;;;;;5100572;28;20462;-82
2023/02/17 04:19:58;;;;;;;10.33;7.90;;;10.90;99.90;;;;;;5106402;28;20445;-82
2023/02/17 04:22:25;;;;;;;10.60;8.23;;;11.00;99.90;;;;;;5106420;28;20459;-82
2023/02/17 04:24:52;;;;;;;9.03;7.47;;;11.00;99.90;;;;;;5104382;28;20469;-82
2023/02/17 04:27:20;;;;;;;9.20;8.23;;;11.00;99.90;;;;;;5102548;28;20470;-82
2023/02/17 04:29:47;;;;;;;10.03;7.97;;;11.10;99.90;;;;;;5106367;28;20550;-82
2023/02/17 04:32:13;;;;;;;8.90;8.00;;;11.00;99.90;;;;;;5094613;28;20465;-81
2023/02/17 04:34:40;;;;;;;9.40;8.00;;;11.00;99.90;;;;;;5086463;28;20501;-82
2023/02/17 04:37:07;;;;;;;11.37;7.50;;;11.00;99.90;;;;;;5093644;28;20500;-80
2023/02/17 04:39:34;;;;;;;9.17;7.83;;;11.10;99.90;;;;;;5092404;28;20548;-82
2023/02/17 04:42:01;;;;;;;10.50;8.63;;;11.10;99.90;;;;;;5089580;28;20470;-81
2023/02/17 04:44:29;;;;;;;8.00;7.20;;;11.00;99.90;;;;;;5095208;28;20821;-81
2023/02/17 04:46:55;;;;;;;10.13;8.90;;;11.00;99.90;;;;;;5095235;28;20487;-80
2023/02/17 04:49:22;;;;;;;10.50;8.40;;;11.00;99.90;;;;;;5111459;28;20457;-81
2023/02/17 04:51:49;;;;;;;9.57;8.27;;;11.10;99.90;;;;;;5115451;28;20454;-81
2023/02/17 04:54:16;;;;;;;8.00;6.90;;;11.00;99.90;;;;;;5115011;28;20463;-81
2023/02/17 04:56:43;;;;;;;7.57;6.67;;;11.00;99.90;;;;;;5115268;28;20521;-79
2023/02/17 04:59:09;;;;;;;8.50;7.37;;;11.10;99.90;;;;;;5106010;28;20451;-81
2023/02/17 05:01:38;;;;;;;9.87;7.53;;;11.10;99.90;;;;;;5114462;28;20461;-81
2023/02/17 05:04:05;;;;;;;9.50;7.40;;;11.20;99.90;;;;;;5114052;28;20822;-82
2023/02/17 05:06:32;;;;;;;7.73;6.93;;;11.10;99.90;;;;;;5114409;28;20525;-80
2023/02/17 05:08:58;;;;;;;8.80;7.30;;;11.10;99.90;;;;;;5100136;28;20456;-83
2023/02/17 05:11:25;;;;;;;10.47;9.37;;;11.10;99.90;;;;;;5093871;28;20843;-81
2023/02/17 05:13:52;;;;;;;16.07;8.00;;;11.10;99.90;;;;;;5093341;28;20448;-82
2023/02/17 05:16:19;;;;;;;10.20;7.90;;;11.10;99.90;;;;;;5093970;28;20469;-82
2023/02/17 05:18:47;;;;;;;7.90;7.10;;;11.10;99.90;;;;;;5105396;28;20458;-81
2023/02/17 05:21:14;;;;;;;8.50;7.40;;;11.10;99.90;;;;;;5114143;28;20445;-82
2023/02/17 05:23:41;;;;;;;9.97;7.30;;;11.10;99.90;;;;;;5113148;28;20488;-82
2023/02/17 05:26:08;;;;;;;10.23;7.90;;;11.10;99.90;;;;;;5106936;28;20487;-80
2023/02/17 05:28:35;;;;;;;10.50;8.90;;;11.10;99.90;;;;;;5084521;28;20546;-80
2023/02/17 05:31:03;;;;;;;10.73;6.40;;;11.10;99.90;;;;;;5082701;28;20829;-79
2023/02/17 05:33:29;;;;;;;8.77;7.00;;;11.10;99.90;;;;;;5093771;28;20451;-82
2023/02/17 05:36:02;;;;;;;9.00;6.90;;;11.10;99.90;;;;;;5092412;28;20842;-79
2023/02/17 05:38:29;;;;;;;8.93;6.43;;;11.10;99.90;;;;;;5096593;28;20470;-80
2023/02/17 05:40:55;;;;;;;7.60;5.80;;;11.20;99.90;;;;;;5098284;28;20438;-79
2023/02/17 05:43:22;;;;;;;7.13;6.20;;;11.20;99.90;;;;;;5096514;28;20482;-79
2023/02/17 05:45:49;;;;;;;7.63;6.30;;;11.20;99.90;;;;;;5095377;28;20496;-82
2023/02/17 05:48:16;;;;;;;7.33;6.53;;;11.20;99.90;;;;;;5088275;28;20608;-80
2023/02/17 05:50:43;;;;;;;10.23;6.80;;;11.20;99.90;;;;;;5097423;28;20496;-78
2023/02/17 05:53:11;;;;;;;8.70;6.90;;;11.30;99.90;;;;;;5100723;28;20448;-81
2023/02/17 05:55:38;;;;;;;9.73;8.47;;;11.20;99.90;;;;;;5098641;28;20901;-80
2023/02/17 05:58:04;;;;;;;10.40;9.07;;;11.20;99.90;;;;;;5092417;28;20463;-81
2023/02/17 06:00:31;;;;;;;12.70;9.80;;;11.30;99.90;;;;;;5095894;28;20965;-80
2023/02/17 06:02:58;;;;;;;11.70;8.80;;;11.30;99.90;;;;;;5103037;28;20457;-82
2023/02/17 06:05:25;;;;;;;8.87;7.97;;;11.30;99.90;;;;;;5093987;28;20451;-83
2023/02/17 06:07:52;;;;;;;13.70;10.03;;;11.30;99.90;;;;;;5097938;28;20839;-80
2023/02/17 06:10:20;;;;;;;10.60;9.20;;;11.30;99.90;;;;;;5093522;28;20485;-80
2023/02/17 06:12:47;;;;;;;10.00;8.17;;;11.30;99.90;;;;;;5094459;28;20458;-81
2023/02/17 06:15:14;;;;;;;9.77;7.93;;;11.30;99.90;;;;;;5103296;28;20513;-82
2023/02/17 06:17:41;;;;;;;9.73;8.70;;;11.30;99.90;;;;;;5100676;28;20470;-81
2023/02/17 06:20:09;;;;;;;9.50;8.50;;;11.30;99.90;;;;;;5095346;28;20445;-81
2023/02/17 06:22:37;;;;;;;9.70;7.50;;;11.20;99.90;;;;;;5097734;28;20453;-81
2023/02/17 06:25:04;;;;;;;11.30;7.80;;;11.20;99.90;;;;;;5097224;28;20513;-80
2023/02/17 06:27:32;;;;;;;9.73;7.87;;;11.20;99.90;;;;;;5094039;28;20491;-79
2023/02/17 06:29:59;;;;;;;10.20;8.57;;;11.20;99.90;;;;;;5098731;28;20911;-82
2023/02/17 06:32:26;;;;;;;9.83;7.33;;;11.20;99.90;;;;;;5096617;28;20457;-82
2023/02/17 06:34:52;;;;;;;8.67;7.60;;;11.30;99.90;;;;;;5099948;28;20556;-80
2023/02/17 06:37:19;;;;;;;10.67;8.20;;;11.30;99.90;;;;;;5098546;28;20942;-81
2023/02/17 06:39:46;;;;;;;10.37;7.87;;;11.30;99.90;;;;;;5094103;28;20462;-81
2023/02/17 06:42:13;;;;;;;12.30;9.27;;;11.30;99.90;;;;;;5086797;28;20577;-84
2023/02/17 06:44:41;;;;;;;10.53;7.90;;;11.20;99.90;;;;;;5097338;28;20536;-81
2023/02/17 06:47:08;;;;;;;9.40;8.00;;;11.30;99.90;;;;;;5088966;28;20502;-79
2023/02/17 06:49:35;;;;;;;12.50;8.90;;;11.30;99.90;;;;;;5098348;28;20523;-84
2023/02/17 06:52:02;;;;;;;12.43;9.40;;;11.30;99.90;;;;;;5096966;28;20479;-83
2023/02/17 06:54:29;;;;;;;11.80;9.20;;;11.30;99.90;;;;;;5103044;28;20522;-85
2023/02/17 06:56:55;;;;;;;13.27;9.17;;;11.30;99.90;;;;;;5093808;28;20476;-83
2023/02/17 06:59:22;;;;;;;10.80;8.83;;;11.20;99.90;;;;;;5107695;28;20473;-84
2023/02/17 07:01:51;;;;;;;11.47;10.30;;;11.10;99.90;;;;;;5096152;28;20470;-80
2023/02/17 07:04:17;;;;;;;12.67;9.60;;;11.00;99.90;;;;;;5093181;28;20460;-82
2023/02/17 07:06:44;;;;;;;15.10;10.70;;;11.00;99.90;;;;;;5101752;28;20956;-83
2023/02/17 07:09:12;;;;;;;12.20;9.77;;;10.90;99.90;;;;;;5102499;28;20484;-83
2023/02/17 07:11:40;;;;;;;13.47;11.00;;;10.80;99.90;;;;;;5100586;28;20720;-83
2023/02/17 07:14:07;;;;;;;11.30;9.77;;;10.80;99.90;;;;;;5101105;28;20450;-82
2023/02/17 07:16:34;;;;;;;13.97;10.10;;;10.70;99.90;;;;;;5089049;28;20487;-83
2023/02/17 07:19:02;;;;;;;12.00;10.57;;;10.70;99.90;;;;;;5105724;28;20443;-84
2023/02/17 07:21:29;;;;;;;14.17;11.23;;;10.80;99.90;;;;;;5109233;28;20496;-83
2023/02/17 07:23:56;;;;;;;12.17;10.70;;;10.80;99.90;;;;;;5105074;28;20455;-84
2023/02/17 07:26:23;;;;;;;14.87;11.10;;;10.90;99.90;;;;;;5105536;28;20554;-84
2023/02/17 07:28:50;;;;;;;12.03;10.33;;;10.90;99.90;;;;;;5102519;28;20521;-81
2023/02/17 07:31:17;;;;;;;13.80;11.97;;;10.90;99.90;;;;;;5098991;28;20548;-82
2023/02/17 07:33:46;;;;;;;13.60;12.13;;;10.80;99.90;;;;;;5096694;28;20451;-80
2023/02/17 07:36:16;;;;;;;12.37;10.90;;;10.70;99.90;;;;;;5097218;28;20508;-82
2023/02/17 07:38:43;;;;;;;14.77;11.67;;;10.80;99.90;;;;;;5101697;28;20465;-82
2023/02/17 07:41:12;;;;;;;17.77;12.43;;;10.70;99.90;;;;;;5100859;28;20800;-82
2023/02/17 07:43:39;;;;;;;15.43;13.60;;;10.70;99.90;;;;;;5103080;28;20461;-82
2023/02/17 07:46:07;;;;;;;15.03;12.50;;;10.80;99.90;;;;;;5104939;28;20528;-84
2023/02/17 07:48:34;;;;;;;13.60;12.20;;;10.70;99.90;;;;;;5106862;28;20493;-83
2023/02/17 07:51:06;;;;;;;12.43;11.17;;;10.70;99.90;;;;;;5092872;28;20489;-82
2023/02/17 07:53:34;;;;;;;14.07;11.10;;;10.80;99.90;;;;;;5099727;28;20434;-83
2023/02/17 07:56:02;;;;;;;13.33;11.93;;;10.80;99.90;;;;;;5100803;28;20472;-83
2023/02/17 07:58:31;;;;;;;13.60;11.87;;;10.80;99.90;;;;;;5099818;28;20449;-82
2023/02/17 08:00:57;;;;;;;12.90;11.57;;;10.80;99.90;;;;;;5097308;28;20564;-82
2023/02/17 08:03:24;;;;;;;10.60;9.50;;;10.80;99.90;;;;;;5098369;28;20518;-82
2023/02/17 08:05:51;;;;;;;12.53;10.53;;;10.80;99.90;;;;;;5098920;28;20465;-83
2023/02/17 08:13:49;;;;;;;9.50;8.50;;;10.90;99.90;;;;;;5095232;28;20470;-85
2023/02/17 08:16:15;;;;;;;14.07;10.40;;;11.00;99.90;;;;;;5099316;28;20531;-83
2023/02/17 08:18:42;;;;;;;11.13;9.43;;;11.10;99.90;;;;;;5095062;28;20452;-83
2023/02/17 08:21:09;;;;;;;10.53;9.43;;;11.10;99.90;;;;;;5089594;28;20815;-83
2023/02/17 08:23:36;;;;;;;10.83;9.70;;;11.20;99.90;;;;;;5093451;28;20926;-82
2023/02/17 08:26:04;;;;;;;9.77;8.63;;;11.30;99.90;;;;;;5098736;28;20563;-83
2023/02/17 08:28:32;;;;;;;11.50;9.50;;;11.30;99.90;;;;;;5093118;28;20533;-82
2023/02/17 08:30:59;;;;;;;13.20;8.73;;;11.30;99.90;;;;;;5092980;28;20558;-81
2023/02/17 08:33:26;;;;;;;10.80;8.30;;;11.40;99.90;;;;;;5094386;28;20454;-82
2023/02/17 08:35:52;;;;;;;8.17;7.37;;;11.50;99.90;;;;;;5109769;28;22012;-82
2023/02/17 08:38:19;;;;;;;12.67;8.13;;;11.50;99.90;;;;;;5094280;28;20450;-81
2023/02/17 08:40:46;;;;;;;10.93;8.13;;;11.50;99.90;;;;;;5093240;28;20856;-81
2023/02/17 08:43:15;;;;;;;9.17;7.93;;;11.60;99.90;;;;;;5083970;28;20475;-82
2023/02/17 08:45:42;;;;;;;9.27;8.10;;;11.60;99.90;;;;;;5094231;28;21080;-83
2023/02/17 08:48:09;;;;;;;10.17;8.60;;;11.60;99.90;;;;;;5091679;28;20551;-83
2023/02/17 08:50:35;;;;;;;9.27;7.90;;;11.60;99.90;;;;;;5088374;28;20458;-83
2023/02/17 08:53:02;;;;;;;9.33;6.73;;;11.70;99.90;;;;;;5087402;28;20458;-83
2023/02/17 08:55:29;;;;;;;9.17;7.30;;;11.80;99.90;;;;;;5094927;28;20577;-82
2023/02/17 08:57:56;;;;;;;10.57;7.40;;;11.70;99.90;;;;;;5090005;28;20462;-82
2023/02/17 09:00:24;;;;;;;8.10;6.73;;;11.80;99.90;;;;;;5091444;28;20482;-84
2023/02/17 09:02:51;;;;;;;8.40;6.93;;;11.90;99.90;;;;;;5086152;28;20471;-82
2023/02/17 09:05:18;;;;;;;9.77;6.43;;;11.90;99.90;;;;;;5094349;28;20831;-84
2023/02/17 09:07:45;;;;;;;9.00;7.43;;;12.10;99.90;;;;;;5096492;28;20487;-86
2023/02/17 09:10:13;;;;;;;8.87;6.40;;;12.20;99.90;;;;;;5095249;28;20457;-84
2023/02/17 09:12:40;;;;;;;8.97;6.23;;;12.40;99.90;;;;;;5085796;28;20472;-82
2023/02/17 09:15:07;;;;;;;7.93;6.60;;;12.30;99.90;;;;;;5088816;28;20509;-81
2023/02/17 09:17:38;;;;;;;9.33;6.07;;;12.30;99.90;;;;;;5089610;28;20496;-83
2023/02/17 09:20:07;;;;;;;8.70;6.57;;;12.30;99.90;;;;;;5088576;28;20478;-82
2023/02/17 09:22:33;;;;;;;7.00;6.30;;;12.30;99.90;;;;;;5094733;28;20444;-85
2023/02/17 09:25:00;;;;;;;7.73;6.27;;;12.40;99.90;;;;;;5097095;28;20489;-85
2023/02/17 09:27:27;;;;;;;6.50;5.60;;;12.40;99.90;;;;;;5096541;28;20567;-85
2023/02/17 09:29:54;;;;;;;11.20;6.67;;;12.40;99.90;;;;;;5098384;28;21056;-84
2023/02/17 09:32:21;;;;;;;9.27;6.53;;;12.50;99.90;;;;;;5112587;28;20519;-83
2023/02/17 09:34:50;;;;;;;7.90;6.33;;;12.50;99.90;;;;;;5117132;28;20535;-83
2023/02/17 09:37:17;;;;;;;7.53;6.37;;;12.50;99.90;;;;;;5104400;28;20467;-85
2023/02/17 09:39:44;;;;;;;8.10;5.47;;;12.60;99.90;;;;;;5100122;28;20442;-81
2023/02/17 09:42:19;;;;;;;12.90;8.77;;;12.60;99.90;;;;;;5096979;28;20477;-82
2023/02/17 09:44:50;;;;;;;11.07;8.20;;;12.80;93.90;;;;;;5097062;28;20963;-82
2023/02/17 09:47:20;;;;;;;9.80;8.30;;;12.90;89.80;;;;;;5096157;28;20534;-82
2023/02/17 09:49:55;;;;;;;7.83;5.60;;;13.10;55.40;;;;;;5099171;28;20536;-85
2023/02/17 09:52:28;;;;;;;8.03;5.43;;;13.20;28.30;;;;;;5096751;28;20552;-83
2023/02/17 09:55:03;;;;;;;9.43;5.57;;;13.30;31.50;;;;;;5091609;28;20511;-82
2023/02/17 09:57:35;;;;;;;8.77;5.67;;;13.30;10.50;;;;;;5095905;28;20479;-85
2023/02/17 10:00:08;;;;;;;7.97;6.37;;;13.40;5.70;;;;;;5105402;28;20584;-85
2023/02/17 10:02:42;;;;;;;6.83;5.17;;;13.50;1.00;;;;;;5103663;28;20469;-84
2023/02/17 10:05:16;;;;;;;10.73;5.63;;;13.50;1.00;;;;;;5099795;28;20466;-84
2023/02/17 10:07:48;;;;;;;8.33;5.80;;;13.50;1.00;;;;;;5102585;28;21102;-83
2023/02/17 10:10:20;;;;;;;9.23;5.83;;;13.50;1.00;;;;;;5112750;28;20514;-85
2023/02/17 10:12:50;;;;;;;6.70;5.80;;;13.60;1.00;;;;;;5106006;28;20455;-85
2023/02/17 10:15:23;;;;;;;7.80;5.53;;;13.70;1.00;;;;;;5086456;28;20501;-85
2023/02/17 10:17:56;;;;;;;6.97;5.77;;;13.50;1.00;;;;;;5099773;28;20986;-85
2023/02/17 10:20:30;;;;;;;7.30;6.07;;;13.60;1.00;;;;;;5107533;28;20640;-84
2023/02/17 10:23:03;;;;;;;9.70;6.00;;;13.60;1.00;;;;;;5102987;28;20469;-84
2023/02/17 10:25:44;;;;;;;7.97;6.20;;;13.30;1.00;;;;;;5096977;28;20483;-83
2023/02/17 10:28:21;;;;;;;7.10;5.80;;;13.50;1.00;;;;;;5086968;28;20518;-85
2023/02/17 10:30:59;;;;;;;8.40;6.67;;;13.40;1.00;;;;;;5096152;28;20479;-86
2023/02/17 10:33:32;;;;;;;6.40;5.70;;;13.40;1.00;;;;;;5090067;28;20465;-85
2023/02/17 10:36:10;;;;;;;6.93;6.10;;;13.40;3.60;;;;;;5097463;28;20467;-84
2023/02/17 10:38:49;;;;;;;7.70;6.90;;;13.40;1.00;;;;;;5098882;28;20452;-87
2023/02/17 10:41:21;;;;;;;9.13;7.03;;;13.40;3.40;;;;;;5098077;28;20469;-84
2023/02/17 10:43:48;;;;;;;8.43;7.00;;;13.40;3.20;;;;;;5096327;28;20477;-84
2023/02/17 10:46:19;;;;;;;9.80;7.87;;;13.40;1.00;;;;;;5092865;28;20493;-85
2023/02/17 10:48:50;;;;;;;9.43;7.70;;;13.60;1.00;;;;;;5095385;28;20487;-85
2023/02/17 10:51:22;;;;;;;11.40;8.70;;;13.60;1.00;;;;;;5094016;28;20486;-86
2023/02/17 10:53:53;;;;;;;9.60;7.67;;;13.70;1.00;;;;;;5097085;28;20528;-85
2023/02/17 10:56:25;;;;;;;12.03;7.67;;;13.50;1.00;;;;;;5097582;28;21340;-85
2023/02/17 10:58:56;;;;;;;8.50;6.80;;;13.60;1.00;;;;;;5091550;28;20435;-85
2023/02/17 11:01:23;;;;;;;8.40;7.00;;;13.60;1.00;;;;;;5092971;28;20450;-85
2023/02/17 11:04:00;;;;;;;10.77;7.10;;;13.60;1.00;;;;;;5097846;28;20451;-85
2023/02/17 11:06:30;;;;;;;9.57;7.10;;;13.70;1.00;;;;;;5098804;28;21016;-84
2023/02/17 11:09:00;;;;;;;9.97;8.40;;;13.80;1.00;;;;;;5096238;28;20481;-84
2023/02/17 11:11:29;;;;;;;8.83;7.37;;;13.70;1.00;;;;;;5097989;28;20454;-85
2023/02/17 11:14:09;;;;;;;6.77;6.07;;;13.80;1.00;;;;;;5098942;28;20464;-83
2023/02/17 11:16:38;;;;;;;6.90;5.70;;;13.70;1.00;;;;;;5095583;28;20480;-84
2023/02/17 11:19:07;;;;;;;7.90;5.27;;;13.80;1.00;;;;;;5101450;28;20474;-82
2023/02/17 11:21:36;;;;;;;11.50;5.73;;;14.00;1.00;;;;;;5096279;28;20463;-85
2023/02/17 11:24:05;;;;;;;5.03;4.27;;;13.80;1.00;;;;;;5102221;28;20528;-84
2023/02/17 11:26:33;;;;;;;6.87;5.10;;;13.80;1.00;;;;;;5097722;28;20478;-83
2023/02/17 11:29:10;;;;;;;8.27;5.80;;;13.80;1.00;;;;;;5097936;28;20899;-85
2023/02/17 11:31:37;;;;;;;6.03;5.30;;;14.10;1.00;;;;;;5094995;28;20500;-84
2023/02/17 11:34:12;;;;;;;5.53;4.87;;;14.30;1.00;;;;;;5096806;28;20468;-85
2023/02/17 11:36:43;;;;;;;6.83;5.20;;;14.40;1.00;;;;;;5098610;28;20470;-87
2023/02/17 11:39:20;;;;;;;9.73;6.13;;;14.70;1.00;;;;;;5097776;28;20500;-85
2023/02/17 11:41:48;;;;;;;6.47;4.23;;;15.40;99.90;;;;;;5097588;28;20560;-84
2023/02/17 11:44:23;;;;;;;5.67;4.37;;;15.60;99.90;;;;;;5097802;28;20472;-86
2023/02/17 11:46:57;;;;;;;6.20;4.10;;;15.60;77.80;;;;;;5103868;28;20467;-85
2023/02/17 11:50:02;;;;;;;5.30;3.90;;;15.50;1.00;;;;;;5103752;28;20440;-85
2023/02/17 11:52:46;;;;;;;4.67;3.23;;;15.60;99.90;;;;;;5087452;28;20464;-86
2023/02/17 11:55:20;;;;;;;5.10;4.20;;;15.60;1.00;;;;;;5092284;28;20826;-84
2023/02/17 11:58:00;;;;;;;8.37;4.93;;;15.30;97.30;;;;;;5095161;28;20525;-86
2023/02/17 12:00:35;;;;;;;6.27;5.67;;;15.00;99.90;;;;;;5100090;28;20865;-85
2023/02/17 12:03:39;;;;;;;7.30;5.50;;;15.00;99.90;;;;;;5097380;28;20445;-87
2023/02/17 12:06:13;;;;;;;6.73;4.47;;;14.80;99.90;;;;;;5093241;28;20533;-86
2023/02/17 12:08:57;;;;;;;6.90;5.43;;;14.60;99.90;;;;;;5082625;22;20499;-85
2023/02/17 12:11:51;;;;;;;7.03;3.80;;;14.60;99.90;;;;;;5059477;28;20538;-83
2023/02/17 12:14:34;;;;;;;5.13;4.47;;;14.40;99.90;;;;;;5056069;28;20523;-85
2023/02/17 12:17:12;;;;;;;6.77;4.40;;;14.40;99.90;;;;;;5056792;28;20445;-85
2023/02/17 12:19:45;;;;;;;8.50;4.97;;;14.50;99.90;;;;;;5066505;28;20485;-85
2023/02/17 12:22:22;;;;;;;5.70;4.77;;;14.50;99.90;;;;;;5077473;28;20443;-85
2023/02/17 12:25:25;;;;;;;7.57;5.27;;;14.50;99.90;;;;;;5070140;28;20456;-85
2023/02/17 12:28:05;;;;;;;7.20;5.37;;;14.50;1.00;;;;;;5076758;28;20488;-86
2023/02/17 12:30:45;;;;;;;6.50;5.63;;;14.50;99.90;;;;;;5071021;28;20460;-85
2023/02/17 12:33:32;;;;;;;6.20;4.73;;;14.40;1.00;;;;;;5062032;28;20433;-84
2023/02/17 12:36:08;;;;;;;6.17;4.63;;;14.40;1.00;;;;;;5057872;28;20503;-84
2023/02/17 12:38:39;;;;;;;5.40;4.40;;;14.60;1.00;;;;;;5076813;28;20569;-84
2023/02/17 12:41:13;;;;;;;6.70;5.40;;;14.50;1.00;;;;;;5070431;28;20465;-81
2023/02/17 12:43:44;;;;;;;5.80;3.90;;;14.30;1.00;;;;;;5064444;28;20596;-84
2023/02/17 12:46:14;;;;;;;5.03;4.07;;;14.40;1.00;;;;;;5077157;28;20453;-85
2023/02/17 12:48:47;;;;;;;5.40;4.40;;;14.40;1.00;;;;;;5072951;28;20578;-82
2023/02/17 12:51:20;;;;;;;4.57;4.10;;;14.30;1.00;;;;;;5066375;28;20488;-83
2023/02/17 12:54:03;;;;;;;5.83;4.57;;;14.40;1.00;;;;;;5080324;28;20475;-84
2023/02/17 12:56:53;;;;;;;4.87;4.33;;;14.40;1.00;;;;;;5074312;28;20539;-83
2023/02/17 12:59:25;;;;;;;6.30;4.90;;;14.40;1.00;;;;;;5059247;28;20449;-84
2023/02/17 13:02:00;;;;;;;5.17;4.10;;;14.30;1.00;;;;;;5077992;28;20446;-85